Terminal Aerodrome Forecast
Issued by NWS

Home | Current Version | Previous Version | Graphics & Text | Print | Product List | Glossary On
Versions: 1 2 3 4 5 6 7 8 9 10 11 12 13 14 15 16 17 18 19 20 21 22 23 24 25 26 27 28 29 30 31 32 33 34 35 36 37 38 39 40 41 42 43 44 45 46 47 48 49 50
758
FTUS43 KLOT 260259 AAA
TAFGYY
TAF AMD
KGYY 260259Z 2603/2624 VRB04KT 3SM -SHRA BR FEW004 SCT020 OVC070
     FM260700 07008KT 2SM -RADZ BR OVC005
     FM261500 17007KT 3SM -RADZ BR OVC010
     FM261900 20007KT 5SM BR VCSH BKN015 OVC024=

USA.gov is the U.S. government's official web portal to all federal, state and local government web resources and services.